Time;durP1;ratioP1;P1;durP2;ratioP2;P2;SDS_P1;SDS_P2;PMS_P1;PMS_P2;Temp;Humidity;BMP_temperature;BMP_pressure;BME280_temperature;BME280_humidity;BME280_pressure;Samples;Min_cycle;Max_cycle;Signal;HPM_P1;HPM_P2
2021/12/20 00:00:44;;;;;;;14.95;3.33;;;1.60;86.70;;;;;;5114230;28;20039;-46
2021/12/20 00:03:11;;;;;;;14.98;3.22;;;1.60;86.70;;;;;;5113824;28;20472;-46
2021/12/20 00:05:38;;;;;;;15.13;3.35;;;1.60;86.80;;;;;;5113889;28;20059;-47
2021/12/20 00:08:05;;;;;;;21.13;4.15;;;1.50;86.90;;;;;;5114253;28;20024;-45
2021/12/20 00:10:33;;;;;;;10.65;3.35;;;1.50;86.80;;;;;;5095820;28;20063;-44
2021/12/20 00:12:59;;;;;;;16.52;5.38;;;1.50;86.70;;;;;;5114083;28;20038;-45
2021/12/20 00:15:27;;;;;;;11.50;3.30;;;1.40;86.70;;;;;;5113873;28;20047;-45
2021/12/20 00:17:52;;;;;;;19.15;3.42;;;1.40;86.80;;;;;;5113813;28;20372;-44
2021/12/20 00:20:23;;;;;;;14.70;3.88;;;1.40;86.90;;;;;;5095463;28;20031;-47
2021/12/20 00:22:50;;;;;;;13.23;3.25;;;1.40;86.90;;;;;;5113882;28;20064;-44
2021/12/20 00:25:20;;;;;;;12.15;3.17;;;1.40;87.10;;;;;;5095739;28;20054;-47
2021/12/20 00:27:49;;;;;;;16.83;3.45;;;1.40;87.20;;;;;;5095866;28;20364;-46
2021/12/20 00:30:17;;;;;;;15.60;3.25;;;1.30;87.00;;;;;;5123909;27;20027;-46
2021/12/20 00:32:43;;;;;;;12.07;3.38;;;1.30;87.10;;;;;;5112735;28;20042;-48
2021/12/20 00:35:13;;;;;;;12.13;3.00;;;1.30;87.10;;;;;;5113588;28;20062;-48
2021/12/20 00:40:25;;;;;;;9.82;2.63;;;1.30;87.20;;;;;;5113442;28;20055;-47
2021/12/20 00:43:09;;;;;;;9.18;2.42;;;1.20;87.00;;;;;;5113768;28;20467;-46
2021/12/20 00:45:39;;;;;;;11.40;3.13;;;1.20;87.00;;;;;;5113943;28;20039;-45
2021/12/20 00:48:05;;;;;;;8.82;1.90;;;1.20;87.00;;;;;;5113381;28;20051;-46
2021/12/20 00:50:33;;;;;;;9.00;2.38;;;1.20;86.80;;;;;;5113115;28;20036;-44
2021/12/20 00:53:00;;;;;;;8.90;2.67;;;1.20;86.80;;;;;;5113549;28;20428;-47
2021/12/20 00:55:28;;;;;;;7.80;2.65;;;1.10;87.00;;;;;;5095269;28;20020;-45
2021/12/20 00:57:59;;;;;;;5.60;2.13;;;1.10;86.90;;;;;;5113459;28;20390;-44
2021/12/20 01:00:58;;;;;;;10.43;2.13;;;1.10;86.80;;;;;;5113051;28;20024;-48
2021/12/20 01:03:26;;;;;;;5.63;2.03;;;1.10;86.80;;;;;;5113355;28;20053;-46
2021/12/20 01:05:53;;;;;;;9.98;2.55;;;1.00;86.70;;;;;;5113448;28;20020;-46
2021/12/20 01:08:21;;;;;;;10.23;2.85;;;1.00;86.60;;;;;;5113172;28;20357;-43
2021/12/20 01:10:52;;;;;;;7.30;3.22;;;0.90;86.80;;;;;;5092775;28;20032;-45
2021/12/20 01:13:22;;;;;;;7.30;2.88;;;0.90;87.00;;;;;;5113158;28;20384;-44
2021/12/20 01:15:54;;;;;;;9.05;2.63;;;1.00;87.10;;;;;;5113136;28;20194;-46
2021/12/20 01:18:22;;;;;;;13.77;3.47;;;1.00;87.10;;;;;;5095633;28;20023;-45
2021/12/20 01:20:49;;;;;;;15.30;3.13;;;1.00;87.00;;;;;;5092772;28;20378;-48
2021/12/20 01:23:17;;;;;;;11.63;2.88;;;1.00;87.10;;;;;;5099673;28;20059;-44
2021/12/20 01:25:45;;;;;;;12.35;3.88;;;1.00;87.10;;;;;;5113270;28;20032;-47
2021/12/20 01:28:11;;;;;;;13.60;3.63;;;0.90;87.10;;;;;;5113007;28;20024;-43
2021/12/20 01:30:42;;;;;;;6.78;2.33;;;0.90;87.10;;;;;;5122908;28;20076;-46
2021/12/20 01:33:11;;;;;;;13.43;2.63;;;0.90;87.20;;;;;;5112960;28;20039;-45
2021/12/20 01:35:41;;;;;;;9.52;2.78;;;0.90;87.10;;;;;;5113040;28;20042;-44
2021/12/20 01:38:09;;;;;;;10.13;3.35;;;0.90;87.10;;;;;;5094875;28;20039;-43
2021/12/20 01:40:36;;;;;;;8.57;3.15;;;0.80;87.00;;;;;;5112062;28;20369;-45
2021/12/20 01:43:06;;;;;;;8.32;3.15;;;0.80;87.00;;;;;;5112352;28;20027;-46
2021/12/20 01:45:40;;;;;;;6.88;2.45;;;0.80;87.10;;;;;;5112603;28;20020;-45
2021/12/20 01:48:10;;;;;;;9.23;2.67;;;0.80;87.30;;;;;;5096064;28;20059;-44
2021/12/20 01:53:18;;;;;;;9.82;2.92;;;0.70;87.50;;;;;;5116691;28;20027;-44
2021/12/20 01:55:43;;;;;;;10.45;3.72;;;0.80;87.70;;;;;;5098654;28;20032;-45
2021/12/20 01:58:11;;;;;;;9.93;2.25;;;0.80;87.30;;;;;;5116209;28;20047;-44
2021/12/20 02:00:37;;;;;;;6.35;2.13;;;0.70;87.20;;;;;;5116159;28;20071;-43
2021/12/20 02:03:03;;;;;;;7.95;2.00;;;0.80;87.40;;;;;;5116502;28;20070;-43
2021/12/20 02:08:28;;;;;;;7.75;1.45;;;0.70;87.10;;;;;;5116416;28;20444;-43
2021/12/20 02:10:58;;;;;;;6.07;1.55;;;0.80;87.50;;;;;;5116171;28;20023;-44
2021/12/20 02:13:28;;;;;;;;;;;0.80;87.80;;;;;;5116320;28;20027;-48
2021/12/20 02:16:00;;;;;;;6.28;1.70;;;0.80;87.60;;;;;;5115653;28;20309;-44
2021/12/20 02:18:29;;;;;;;7.43;1.30;;;0.70;87.60;;;;;;5115853;28;20035;-45
2021/12/20 02:20:56;;;;;;;4.82;1.42;;;0.70;87.60;;;;;;5115919;28;20042;-46
2021/12/20 02:23:23;;;;;;;5.40;1.98;;;0.70;87.70;;;;;;5098189;28;20031;-43
2021/12/20 02:25:50;;;;;;;5.38;1.65;;;0.70;87.60;;;;;;5097892;28;20356;-44
2021/12/20 02:28:19;;;;;;;11.48;1.80;;;0.70;87.50;;;;;;5098317;28;20027;-46
2021/12/20 02:38:52;;;;;;;5.32;1.55;;;0.60;87.40;;;;;;5116050;28;20348;-44
2021/12/20 02:41:32;;;;;;;3.22;1.45;;;0.60;87.30;;;;;;5115298;28;20119;-45
2021/12/20 02:44:05;;;;;;;;;;;0.60;87.30;;;;;;5115717;28;20076;-45
2021/12/20 02:47:02;;;;;;;6.05;1.42;;;0.50;87.40;;;;;;5097597;28;19911;-44
2021/12/20 02:49:31;;;;;;;6.45;1.98;;;0.50;87.30;;;;;;5115027;28;20031;-45
2021/12/20 02:52:08;;;;;;;6.70;1.80;;;0.50;87.30;;;;;;5097623;28;20027;-44
2021/12/20 02:54:35;;;;;;;5.80;1.95;;;0.50;87.00;;;;;;5097412;28;20135;-49
2021/12/20 02:57:04;;;;;;;8.68;1.88;;;0.50;87.10;;;;;;5115300;28;20038;-44
2021/12/20 02:59:30;;;;;;;4.38;1.65;;;0.50;87.20;;;;;;5114950;28;20074;-44
2021/12/20 03:02:04;;;;;;;3.40;1.42;;;0.50;87.20;;;;;;5115123;28;20050;-46
2021/12/20 03:04:31;;;;;;;2.85;1.30;;;0.40;87.20;;;;;;5114799;28;20027;-44
2021/12/20 03:07:02;;;;;;;5.75;1.40;;;0.40;87.20;;;;;;5115030;28;20406;-47
2021/12/20 03:09:34;;;;;;;6.15;1.75;;;0.40;87.10;;;;;;5115158;28;20110;-49
2021/12/20 03:12:03;;;;;;;3.38;2.08;;;0.40;87.20;;;;;;5115318;28;20078;-47
2021/12/20 03:14:36;;;;;;;9.68;2.00;;;0.40;87.20;;;;;;5112890;28;20654;-43
2021/12/20 03:17:06;;;;;;;5.45;1.23;;;0.30;87.00;;;;;;5101676;28;20036;-45
2021/12/20 03:19:33;;;;;;;4.10;1.35;;;0.30;87.00;;;;;;5118656;27;20443;-49
2021/12/20 03:22:02;;;;;;;5.10;1.50;;;0.40;87.30;;;;;;5110310;28;20031;-47
2021/12/20 03:24:29;;;;;;;9.67;1.60;;;0.30;87.20;;;;;;5114918;28;20130;-47
2021/12/20 03:26:56;;;;;;;6.88;1.95;;;0.30;87.30;;;;;;5114855;28;20559;-44
2021/12/20 03:29:23;;;;;;;6.57;1.48;;;0.30;87.10;;;;;;5117859;27;20104;-48
2021/12/20 03:31:50;;;;;;;3.15;1.17;;;0.20;87.40;;;;;;5132921;27;20039;-48
2021/12/20 03:34:21;;;;;;;12.80;2.53;;;0.30;87.40;;;;;;5100968;28;20080;-48
2021/12/20 03:36:48;;;;;;;5.90;2.28;;;0.30;87.30;;;;;;5096139;28;20048;-42
2021/12/20 03:39:15;;;;;;;4.78;1.42;;;0.30;87.10;;;;;;5114583;28;20047;-48
2021/12/20 03:41:43;;;;;;;8.13;2.08;;;0.30;87.00;;;;;;5092868;28;20040;-47
2021/12/20 03:44:11;;;;;;;4.32;1.27;;;0.30;87.10;;;;;;5094197;28;20039;-45
2021/12/20 03:46:38;;;;;;;10.38;2.20;;;0.30;87.30;;;;;;5093860;28;20024;-44
2021/12/20 03:49:06;;;;;;;5.15;1.98;;;0.20;87.10;;;;;;5092942;28;20035;-46
2021/12/20 03:51:35;;;;;;;5.05;1.23;;;0.20;87.20;;;;;;5093917;28;20068;-45
2021/12/20 03:54:02;;;;;;;8.52;2.40;;;0.20;87.10;;;;;;5092997;28;20043;-46
2021/12/20 03:56:29;;;;;;;6.63;2.03;;;0.20;87.00;;;;;;5093147;28;20048;-44
2021/12/20 03:58:56;;;;;;;7.28;2.00;;;0.20;87.00;;;;;;5093935;28;20044;-45
2021/12/20 04:01:25;;;;;;;6.80;1.67;;;0.20;87.00;;;;;;5093543;28;20028;-47
2021/12/20 04:03:51;;;;;;;8.52;1.85;;;0.20;87.30;;;;;;5094007;28;20103;-47
2021/12/20 04:06:18;;;;;;;8.05;2.22;;;0.20;87.20;;;;;;5093466;28;20042;-46
2021/12/20 04:08:46;;;;;;;7.43;2.00;;;0.20;87.00;;;;;;5093654;28;20051;-46
2021/12/20 04:11:13;;;;;;;4.72;1.83;;;0.20;87.10;;;;;;5092125;28;20040;-50
2021/12/20 04:13:39;;;;;;;7.82;2.20;;;0.20;87.00;;;;;;5093694;28;20040;-44
2021/12/20 04:16:06;;;;;;;6.18;2.05;;;0.10;87.00;;;;;;5093232;28;20052;-45
2021/12/20 04:18:33;;;;;;;9.82;1.80;;;0.10;87.10;;;;;;5092428;28;20354;-46
2021/12/20 04:20:59;;;;;;;7.10;1.90;;;0.10;87.00;;;;;;5092616;28;20067;-44
2021/12/20 04:23:26;;;;;;;7.20;1.77;;;0.00;87.00;;;;;;5093452;28;20024;-44
2021/12/20 04:25:53;;;;;;;5.25;1.98;;;0.00;86.90;;;;;;5093288;28;20055;-46
2021/12/20 04:28:20;;;;;;;10.05;2.15;;;0.00;87.00;;;;;;5092418;28;20029;-46
2021/12/20 04:30:46;;;;;;;7.18;2.22;;;0.10;87.10;;;;;;5093294;28;20392;-47
2021/12/20 04:33:13;;;;;;;9.77;2.83;;;0.00;87.20;;;;;;5093086;28;20036;-47
2021/12/20 04:35:41;;;;;;;11.85;3.50;;;0.00;87.00;;;;;;5091763;28;20028;-44
2021/12/20 04:38:09;;;;;;;8.25;2.05;;;0.00;87.10;;;;;;5092874;28;20032;-46
2021/12/20 04:40:39;;;;;;;8.43;1.85;;;0.00;87.30;;;;;;5091523;28;20102;-47
2021/12/20 04:43:09;;;;;;;9.82;2.20;;;0.10;87.70;;;;;;5071111;28;20505;-46
2021/12/20 04:45:36;;;;;;;11.48;1.98;;;0.10;87.70;;;;;;5055612;28;20134;-47
2021/12/20 04:48:04;;;;;;;9.27;2.80;;;0.10;87.40;;;;;;5072567;28;20096;-48
2021/12/20 04:50:31;;;;;;;7.13;1.67;;;0.00;87.20;;;;;;5069374;28;20477;-46
2021/12/20 04:52:59;;;;;;;9.00;1.83;;;0.00;87.30;;;;;;5051884;28;20037;-45
2021/12/20 04:55:27;;;;;;;4.45;1.70;;;0.00;87.40;;;;;;5052990;28;20029;-47
2021/12/20 04:57:56;;;;;;;8.45;2.67;;;0.00;87.10;;;;;;5061598;28;20028;-45
2021/12/20 05:00:28;;;;;;;6.18;1.70;;;0.00;87.80;;;;;;5070587;28;20033;-45
2021/12/20 05:02:56;;;;;;;8.30;2.58;;;0.00;87.80;;;;;;5072498;28;20059;-45
2021/12/20 05:05:23;;;;;;;6.18;2.50;;;0.00;87.60;;;;;;5067654;28;20512;-46
2021/12/20 05:07:51;;;;;;;5.38;1.88;;;0.00;87.60;;;;;;5069559;28;20060;-45
2021/12/20 05:10:34;;;;;;;10.45;2.83;;;0.00;87.70;;;;;;5072349;28;20048;-45
2021/12/20 05:13:07;;;;;;;5.25;1.83;;;0.00;87.50;;;;;;5070992;28;20013;-44
2021/12/20 05:15:38;;;;;;;8.15;2.20;;;0.00;87.60;;;;;;5068981;28;20046;-44
2021/12/20 05:18:08;;;;;;;7.30;3.55;;;0.00;87.40;;;;;;5057343;28;20089;-46
2021/12/20 05:20:39;;;;;;;5.85;2.10;;;0.00;87.30;;;;;;5069437;28;20449;-44
2021/12/20 05:23:08;;;;;;;5.68;1.35;;;0.00;87.30;;;;;;5059454;28;20111;-43
2021/12/20 05:25:37;;;;;;;8.40;1.58;;;0.00;87.30;;;;;;5072123;28;20032;-46
2021/12/20 05:28:04;;;;;;;6.05;2.25;;;0.00;87.40;;;;;;5065033;28;20044;-43
2021/12/20 05:30:31;;;;;;;8.93;2.95;;;0.00;87.10;;;;;;5069627;28;20111;-47
2021/12/20 05:32:58;;;;;;;6.57;2.17;;;0.00;87.30;;;;;;5066800;28;20037;-45
2021/12/20 05:35:25;;;;;;;7.18;2.15;;;0.00;87.30;;;;;;5064908;28;20462;-46
2021/12/20 05:37:58;;;;;;;12.30;2.05;;;-3276.70;87.20;;;;;;5066987;28;20040;-44
2021/12/20 05:40:25;;;;;;;6.68;2.13;;;-3276.70;87.30;;;;;;5082150;28;20075;-46
2021/12/20 05:42:52;;;;;;;6.00;1.85;;;-3276.70;87.30;;;;;;5116265;28;20054;-45
2021/12/20 05:45:20;;;;;;;12.68;3.08;;;-3276.70;87.40;;;;;;5116368;28;20024;-45
2021/12/20 05:47:47;;;;;;;6.47;1.60;;;-3276.70;87.70;;;;;;5116289;28;20114;-44
2021/12/20 05:50:16;;;;;;;5.97;1.70;;;-3276.70;87.70;;;;;;5115308;28;20781;-46
2021/12/20 05:52:43;;;;;;;7.30;2.28;;;-3276.70;87.70;;;;;;5113859;28;20028;-48
2021/12/20 05:55:12;;;;;;;6.97;2.55;;;-3276.70;87.60;;;;;;5098169;28;20023;-43
2021/12/20 05:57:40;;;;;;;6.80;2.08;;;-3276.60;87.60;;;;;;5114712;28;20032;-47
2021/12/20 06:00:12;;;;;;;9.02;1.65;;;-3276.70;87.60;;;;;;5115924;28;20041;-46
2021/12/20 06:02:39;;;;;;;5.07;2.22;;;-3276.60;87.50;;;;;;5097709;28;20031;-45
2021/12/20 06:05:06;;;;;;;4.68;1.70;;;-3276.60;87.40;;;;;;5115921;28;20034;-46
2021/12/20 06:07:39;;;;;;;5.38;1.40;;;-3276.70;87.60;;;;;;5115343;28;20084;-47
2021/12/20 06:10:08;;;;;;;4.38;1.73;;;-3276.60;87.50;;;;;;5114681;28;20035;-45
2021/12/20 06:12:35;;;;;;;3.97;1.17;;;-3276.60;87.50;;;;;;5116690;28;20317;-46
2021/12/20 06:15:05;;;;;;;5.78;1.70;;;-3276.60;87.30;;;;;;5115902;28;20539;-47
2021/12/20 06:17:32;;;;;;;5.40;1.20;;;-3276.70;87.60;;;;;;5114704;27;20027;-47
2021/12/20 06:19:59;;;;;;;9.98;2.35;;;-3276.60;87.60;;;;;;5115320;28;20080;-44
2021/12/20 06:22:27;;;;;;;4.38;2.55;;;-3276.60;87.70;;;;;;5115882;28;20028;-47
2021/12/20 06:24:54;;;;;;;5.28;2.33;;;-3276.60;87.60;;;;;;5097382;28;20088;-45
2021/12/20 06:27:21;;;;;;;7.95;2.38;;;-3276.60;87.70;;;;;;5115887;28;20118;-46
2021/12/20 06:29:48;;;;;;;7.47;2.47;;;-3276.60;87.60;;;;;;5116347;27;20059;-45
2021/12/20 06:32:14;;;;;;;6.80;3.70;;;-3276.60;87.60;;;;;;5115623;28;20054;-43
2021/12/20 06:34:41;;;;;;;9.38;3.25;;;-3276.60;87.70;;;;;;5096507;28;20056;-48
2021/12/20 06:37:12;;;;;;;7.85;3.80;;;-3276.60;87.80;;;;;;5114994;28;20097;-45
2021/12/20 06:39:40;;;;;;;8.30;4.32;;;-3276.60;87.90;;;;;;5115487;28;20035;-49
2021/12/20 06:42:07;;;;;;;8.68;4.68;;;-3276.60;87.90;;;;;;5096494;28;20039;-47
2021/12/20 06:44:33;;;;;;;8.80;5.75;;;-3276.60;87.80;;;;;;5114240;28;20032;-46
2021/12/20 06:47:02;;;;;;;7.28;5.40;;;-3276.60;87.90;;;;;;5115310;28;20038;-45
2021/12/20 06:49:29;;;;;;;11.88;4.75;;;-3276.60;87.90;;;;;;5114015;28;20027;-44
2021/12/20 06:51:59;;;;;;;8.55;4.55;;;-3276.60;87.80;;;;;;5115203;28;20031;-45
2021/12/20 06:54:24;;;;;;;10.00;4.55;;;-3276.50;87.60;;;;;;5115447;28;20470;-44
2021/12/20 06:56:51;;;;;;;8.35;4.93;;;-3276.60;87.60;;;;;;5096617;28;20043;-44
2021/12/20 06:59:17;;;;;;;8.60;5.05;;;-3276.50;87.40;;;;;;5114606;28;20024;-45
2021/12/20 07:01:43;;;;;;;8.32;4.32;;;-3276.50;87.40;;;;;;5102308;28;20048;-44
2021/12/20 07:04:12;;;;;;;8.38;4.07;;;-3276.50;87.30;;;;;;5114599;28;20043;-44
2021/12/20 07:06:39;;;;;;;7.78;4.35;;;-3276.50;87.30;;;;;;5114835;28;20039;-47
2021/12/20 07:09:07;;;;;;;7.78;5.45;;;-3276.40;87.50;;;;;;5097387;28;20670;-46
2021/12/20 07:11:34;;;;;;;9.43;5.32;;;-3276.40;87.30;;;;;;5114933;28;20035;-43
2021/12/20 07:14:01;;;;;;;8.07;5.07;;;-3276.40;87.60;;;;;;5096942;28;20027;-48
2021/12/20 07:16:31;;;;;;;12.05;4.90;;;-3276.40;87.60;;;;;;5114903;28;20318;-43
2021/12/20 07:18:59;;;;;;;8.13;3.92;;;-3276.40;87.60;;;;;;5096880;28;20031;-44
2021/12/20 07:21:26;;;;;;;7.22;4.05;;;-3276.40;87.60;;;;;;5114977;28;20157;-43
2021/12/20 07:23:53;;;;;;;9.45;3.53;;;-3276.40;87.60;;;;;;5115015;28;20027;-47
2021/12/20 07:26:21;;;;;;;5.85;2.90;;;-3276.40;87.50;;;;;;5114979;28;20081;-45
2021/12/20 07:28:48;;;;;;;9.70;3.15;;;-3276.40;87.60;;;;;;5116786;27;20023;-46
2021/12/20 07:31:14;;;;;;;6.85;2.53;;;-3276.40;87.60;;;;;;5120618;27;20028;-45
2021/12/20 07:33:42;;;;;;;8.52;2.55;;;-3276.40;87.70;;;;;;5095048;28;20574;-47
2021/12/20 07:36:08;;;;;;;5.15;2.05;;;-3276.40;87.40;;;;;;5095632;28;20081;-45
2021/12/20 07:38:35;;;;;;;7.68;3.47;;;-3276.40;87.70;;;;;;5113414;28;20027;-47
2021/12/20 07:41:03;;;;;;;6.50;2.17;;;-3276.40;87.80;;;;;;5086947;28;20037;-45
2021/12/20 07:43:29;;;;;;;8.05;1.85;;;-3276.40;87.70;;;;;;5063352;28;20028;-44
2021/12/20 07:45:56;;;;;;;6.03;2.55;;;-3276.40;87.70;;;;;;5058717;28;20029;-43
2021/12/20 07:48:21;;;;;;;7.25;2.35;;;-3276.50;87.90;;;;;;5053738;28;20025;-44
2021/12/20 07:50:48;;;;;;;7.43;2.72;;;-3276.50;88.10;;;;;;5063507;28;20181;-46
2021/12/20 07:53:17;;;;;;;8.00;3.05;;;-3276.50;88.00;;;;;;5064515;28;20029;-43
2021/12/20 07:55:43;;;;;;;6.13;3.07;;;-3276.50;87.90;;;;;;5039203;28;20078;-44
2021/12/20 07:58:09;;;;;;;7.45;3.00;;;-3276.50;87.70;;;;;;5069664;28;20396;-44
2021/12/20 08:00:38;;;;;;;6.40;3.20;;;-3276.40;87.80;;;;;;5067763;28;20361;-44
2021/12/20 08:03:06;;;;;;;5.95;3.28;;;-3276.50;87.90;;;;;;5068668;28;20067;-44
2021/12/20 08:05:33;;;;;;;7.57;2.92;;;-3276.50;87.80;;;;;;5065445;28;20439;-46
2021/12/20 08:07:59;;;;;;;5.38;3.33;;;-3276.40;87.60;;;;;;5056332;28;20071;-46
2021/12/20 08:10:29;;;;;;;9.93;4.88;;;-3276.30;87.80;;;;;;5072301;28;20091;-47
2021/12/20 08:12:58;;;;;;;9.18;4.05;;;-3276.30;88.00;;;;;;5071162;28;20025;-46
2021/12/20 08:15:26;;;;;;;9.23;5.95;;;-3276.40;87.90;;;;;;5066636;28;20089;-45
2021/12/20 08:17:53;;;;;;;6.10;4.30;;;-3276.50;88.00;;;;;;5070834;28;20021;-45
2021/12/20 08:20:20;;;;;;;13.18;4.57;;;-3276.50;88.20;;;;;;5071835;28;20052;-45
2021/12/20 08:22:47;;;;;;;6.50;3.65;;;-3276.50;88.00;;;;;;5062940;28;20032;-43
2021/12/20 08:25:16;;;;;;;7.32;3.65;;;-3276.60;87.90;;;;;;5062949;28;20021;-46
2021/12/20 08:27:42;;;;;;;9.32;4.03;;;-3276.50;87.80;;;;;;5066244;28;20025;-46
2021/12/20 08:30:08;;;;;;;15.13;5.53;;;-3276.60;87.90;;;;;;5068199;28;20044;-47
2021/12/20 08:32:36;;;;;;;6.28;3.60;;;-3276.60;87.90;;;;;;5070852;28;20032;-45
2021/12/20 08:35:04;;;;;;;10.68;4.72;;;-3276.60;87.70;;;;;;5075670;28;20478;-43
2021/12/20 08:37:31;;;;;;;6.03;4.30;;;-3276.60;87.90;;;;;;5068173;28;20028;-43
2021/12/20 08:39:57;;;;;;;8.80;3.90;;;-3276.60;87.80;;;;;;5077889;28;20048;-46
2021/12/20 08:42:22;;;;;;;10.13;4.25;;;-3276.70;87.90;;;;;;5112236;28;20052;-44
2021/12/20 08:44:49;;;;;;;7.65;4.28;;;0.00;87.80;;;;;;5094763;28;20039;-45
2021/12/20 08:47:17;;;;;;;7.65;4.20;;;0.00;87.90;;;;;;5113177;28;20353;-43
2021/12/20 08:49:45;;;;;;;10.85;5.03;;;0.00;87.80;;;;;;5112616;28;20050;-43
2021/12/20 08:52:12;;;;;;;10.07;5.35;;;0.00;87.90;;;;;;5094054;28;20047;-46
2021/12/20 08:54:39;;;;;;;14.38;7.53;;;0.00;87.90;;;;;;5094703;28;20546;-45
2021/12/20 08:57:07;;;;;;;11.60;6.82;;;0.20;87.90;;;;;;5112902;27;20043;-43
2021/12/20 08:59:33;;;;;;;13.13;5.70;;;0.30;88.00;;;;;;5117156;28;20041;-46
2021/12/20 09:01:59;;;;;;;9.90;4.47;;;0.40;88.00;;;;;;5098812;28;20364;-42
2021/12/20 09:04:25;;;;;;;7.93;4.20;;;0.50;88.00;;;;;;5098250;28;20027;-43
2021/12/20 09:06:52;;;;;;;9.70;4.28;;;0.70;87.90;;;;;;5116064;28;20036;-43
2021/12/20 09:09:18;;;;;;;9.10;3.78;;;0.80;87.70;;;;;;5116156;28;20031;-44
2021/12/20 09:11:45;;;;;;;6.82;3.45;;;0.90;87.60;;;;;;5116135;28;20036;-44
2021/12/20 09:14:12;;;;;;;9.77;3.88;;;1.00;87.60;;;;;;5097475;28;20361;-44
2021/12/20 09:16:39;;;;;;;16.00;5.22;;;1.20;87.40;;;;;;5098801;28;20042;-43
2021/12/20 09:19:04;;;;;;;10.57;4.65;;;1.30;87.30;;;;;;5115785;28;20097;-43
2021/12/20 09:21:33;;;;;;;15.00;5.63;;;1.30;87.50;;;;;;5080942;28;20091;-42
2021/12/20 09:24:03;;;;;;;12.88;4.22;;;1.40;87.40;;;;;;5115427;28;20092;-42
2021/12/20 09:26:30;;;;;;;10.98;3.63;;;1.40;87.60;;;;;;5115867;28;20148;-43
2021/12/20 09:28:56;;;;;;;13.82;5.05;;;1.40;87.60;;;;;;5093987;28;20149;-42
2021/12/20 09:31:23;;;;;;;11.27;3.92;;;1.50;87.60;;;;;;5094774;28;20048;-44
2021/12/20 09:33:52;;;;;;;12.50;3.58;;;1.60;87.70;;;;;;5114946;28;20097;-41
2021/12/20 09:36:19;;;;;;;9.38;3.17;;;1.50;87.50;;;;;;5114983;28;20047;-44
2021/12/20 09:38:45;;;;;;;8.73;3.85;;;1.60;87.50;;;;;;5097624;28;20051;-45
2021/12/20 09:41:27;;;;;;;12.93;5.80;;;1.60;87.70;;;;;;5066197;28;20049;-42
2021/12/20 09:43:53;;;;;;;17.50;7.22;;;1.70;87.80;;;;;;5067169;28;20021;-47
2021/12/20 09:46:24;;;;;;;15.77;5.45;;;1.80;87.70;;;;;;5073434;28;20031;-44
2021/12/20 09:48:50;;;;;;;10.45;4.88;;;1.80;87.50;;;;;;5057407;28;20078;-43
2021/12/20 09:51:17;;;;;;;15.93;5.82;;;1.90;87.60;;;;;;5074269;28;20028;-43
2021/12/20 09:53:44;;;;;;;11.20;4.07;;;2.00;87.70;;;;;;5091359;28;20032;-43
2021/12/20 09:56:11;;;;;;;9.32;5.05;;;2.10;87.60;;;;;;5087063;28;20036;-42
2021/12/20 09:58:39;;;;;;;11.25;3.83;;;2.20;87.60;;;;;;5072951;28;20036;-42
2021/12/20 10:01:07;;;;;;;12.40;4.93;;;2.30;87.20;;;;;;5073581;28;20029;-42
2021/12/20 10:03:36;;;;;;;9.00;3.90;;;2.40;87.40;;;;;;5072470;28;20028;-42
2021/12/20 10:06:03;;;;;;;10.75;4.28;;;2.40;87.20;;;;;;5073212;28;20021;-46
2021/12/20 10:08:37;;;;;;;11.23;4.43;;;2.50;87.10;;;;;;5073335;28;20028;-43
2021/12/20 10:11:24;;;;;;;13.20;4.55;;;2.50;86.90;;;;;;5073369;28;20408;-43
2021/12/20 10:14:02;;;;;;;19.17;5.00;;;2.50;86.90;;;;;;5068622;28;20021;-43
2021/12/20 10:16:28;;;;;;;12.32;5.65;;;2.60;86.80;;;;;;5073642;28;20028;-42
2021/12/20 10:18:54;;;;;;;16.60;6.35;;;2.60;86.90;;;;;;5073970;28;20044;-44
2021/12/20 10:21:36;;;;;;;16.20;5.20;;;2.70;87.00;;;;;;5074025;28;20036;-46
2021/12/20 10:24:06;;;;;;;12.35;4.93;;;2.70;87.10;;;;;;5073593;28;20021;-45
2021/12/20 10:26:42;;;;;;;9.15;4.00;;;2.70;87.20;;;;;;5073607;28;20454;-42
2021/12/20 10:29:20;;;;;;;17.55;6.05;;;2.70;87.20;;;;;;5071335;28;20029;-41
2021/12/20 10:31:47;;;;;;;16.08;7.40;;;2.70;87.20;;;;;;5071933;28;20466;-45
2021/12/20 10:34:14;;;;;;;15.80;7.25;;;2.70;87.30;;;;;;5073677;28;20033;-43
2021/12/20 10:36:54;;;;;;;13.30;6.57;;;2.70;87.30;;;;;;5073119;28;20024;-43
2021/12/20 10:39:45;;;;;;;19.17;6.72;;;2.80;87.30;;;;;;5060874;28;20037;-45
2021/12/20 10:42:19;;;;;;;15.90;7.72;;;2.80;87.50;;;;;;5114262;28;20023;-43
2021/12/20 10:45:06;;;;;;;16.10;6.53;;;2.90;87.40;;;;;;5114600;28;20036;-46
2021/12/20 10:47:32;;;;;;;14.55;7.38;;;2.90;87.50;;;;;;5114623;28;20019;-44
2021/12/20 10:49:57;;;;;;;20.75;9.68;;;2.90;87.50;;;;;;5115027;28;20047;-44
2021/12/20 10:52:28;;;;;;;17.88;6.82;;;3.00;87.50;;;;;;5117536;27;20036;-42
2021/12/20 10:54:54;;;;;;;14.32;6.90;;;3.00;87.60;;;;;;5110715;28;20034;-42
2021/12/20 10:57:30;;;;;;;15.00;7.97;;;3.10;87.60;;;;;;5114845;28;20044;-42
2021/12/20 11:00:17;;;;;;;14.80;8.30;;;3.10;87.60;;;;;;5105191;27;20044;-47
2021/12/20 11:03:26;;;;;;;12.90;6.50;;;3.20;87.60;;;;;;5108879;28;20058;-44
2021/12/20 11:11:26;;;;;;;12.70;6.55;;;3.30;87.80;;;;;;5112345;28;20354;-43
2021/12/20 11:13:52;;;;;;;15.52;8.27;;;3.30;87.80;;;;;;5110648;28;20032;-42
2021/12/20 11:16:37;;;;;;;18.05;6.57;;;3.40;87.80;;;;;;5112801;28;20020;-43
2021/12/20 11:19:08;;;;;;;18.02;7.25;;;3.40;87.90;;;;;;5112568;28;20028;-42
2021/12/20 11:21:35;;;;;;;13.82;6.65;;;3.40;87.90;;;;;;5102177;27;20027;-43
2021/12/20 11:24:03;;;;;;;17.02;7.28;;;3.50;87.90;;;;;;5093322;28;20043;-45
2021/12/20 11:26:31;;;;;;;12.55;6.00;;;3.50;88.00;;;;;;5095447;28;20519;-42
2021/12/20 11:29:00;;;;;;;10.73;5.28;;;3.60;88.00;;;;;;5095062;28;20383;-43
2021/12/20 11:31:25;;;;;;;12.10;4.30;;;3.60;87.90;;;;;;5074236;28;20066;-43
2021/12/20 11:33:51;;;;;;;13.20;3.85;;;3.60;87.80;;;;;;5111593;28;20204;-42
2021/12/20 11:36:18;;;;;;;8.88;3.47;;;3.70;87.80;;;;;;5112812;28;20046;-45
2021/12/20 11:38:45;;;;;;;7.15;3.25;;;3.70;87.80;;;;;;5111519;28;20040;-43
2021/12/20 11:41:11;;;;;;;9.10;3.72;;;3.80;87.80;;;;;;5112854;28;20060;-43
2021/12/20 11:43:39;;;;;;;11.20;3.13;;;3.90;87.80;;;;;;5112642;28;20055;-42
2021/12/20 11:46:06;;;;;;;6.90;3.25;;;3.90;87.60;;;;;;5112609;28;20059;-43
2021/12/20 11:48:37;;;;;;;12.68;5.75;;;3.90;87.60;;;;;;5113222;28;20023;-44
2021/12/20 11:51:03;;;;;;;15.55;6.10;;;4.00;87.60;;;;;;5100055;27;20038;-43
2021/12/20 11:53:35;;;;;;;8.88;5.00;;;4.10;87.50;;;;;;5097797;28;20028;-43
2021/12/20 11:56:01;;;;;;;10.85;4.38;;;4.10;87.50;;;;;;5099078;28;20042;-45
2021/12/20 11:58:30;;;;;;;13.05;4.20;;;4.10;87.50;;;;;;5112206;28;20033;-42
2021/12/20 12:01:01;;;;;;;8.02;4.78;;;4.20;87.50;;;;;;5113315;28;20023;-42
2021/12/20 12:03:35;;;;;;;10.52;4.07;;;4.20;87.60;;;;;;5074934;28;20371;-43
2021/12/20 12:06:10;;;;;;;9.52;4.43;;;4.20;87.50;;;;;;5105083;28;20028;-45
2021/12/20 12:08:48;;;;;;;11.25;4.00;;;4.20;87.60;;;;;;5110779;28;20089;-47
2021/12/20 12:11:14;;;;;;;14.02;4.65;;;4.30;87.70;;;;;;5112612;28;20103;-48
2021/12/20 12:14:00;;;;;;;11.48;5.13;;;4.30;87.80;;;;;;5111472;28;20124;-44
2021/12/20 12:16:46;;;;;;;13.35;4.68;;;4.40;87.90;;;;;;5111955;28;20039;-44
2021/12/20 12:19:12;;;;;;;11.88;4.78;;;4.40;88.00;;;;;;5111808;28;20020;-47
2021/12/20 12:21:40;;;;;;;9.77;5.60;;;4.40;87.90;;;;;;5110107;28;20168;-48
2021/12/20 12:24:07;;;;;;;14.10;5.88;;;4.40;88.00;;;;;;5110873;28;20134;-43
2021/12/20 12:26:36;;;;;;;10.98;3.95;;;4.40;87.80;;;;;;5102612;28;20161;-45
2021/12/20 12:29:08;;;;;;;8.65;4.75;;;4.40;87.50;;;;;;5102896;28;20087;-44
2021/12/20 12:31:48;;;;;;;6.20;2.72;;;4.40;87.60;;;;;;5105103;28;20508;-46
2021/12/20 12:34:15;;;;;;;9.10;3.95;;;4.40;87.80;;;;;;5105910;28;20035;-42
2021/12/20 12:36:41;;;;;;;12.95;3.08;;;4.40;87.70;;;;;;5104615;28;20113;-46
2021/12/20 12:39:11;;;;;;;8.23;2.90;;;4.40;87.70;;;;;;5098276;28;20031;-44
2021/12/20 12:41:47;;;;;;;7.13;2.88;;;4.50;87.90;;;;;;5112800;28;20573;-49
2021/12/20 12:44:22;;;;;;;9.05;2.88;;;4.40;87.80;;;;;;5110651;28;20160;-43
2021/12/20 12:46:58;;;;;;;7.60;3.08;;;4.50;87.70;;;;;;5107080;28;20032;-43
2021/12/20 12:49:30;;;;;;;7.07;2.03;;;4.50;87.60;;;;;;5112324;28;20038;-47
2021/12/20 12:52:04;;;;;;;5.38;2.53;;;4.50;87.50;;;;;;5108715;28;20027;-45
2021/12/20 12:54:35;;;;;;;6.38;3.33;;;4.50;87.40;;;;;;5111266;28;20098;-46
2021/12/20 12:57:10;;;;;;;9.45;2.50;;;4.50;87.30;;;;;;5110067;28;20025;-49
2021/12/20 12:59:54;;;;;;;4.60;2.50;;;4.50;87.00;;;;;;5112227;28;20040;-47
2021/12/20 13:02:22;;;;;;;8.02;2.33;;;4.60;87.10;;;;;;5101727;28;20028;-46
2021/12/20 13:05:05;;;;;;;7.45;2.20;;;4.60;86.90;;;;;;5106156;28;20337;-49
2021/12/20 13:07:40;;;;;;;9.52;1.98;;;4.60;86.80;;;;;;5107168;28;20028;-47
2021/12/20 13:10:28;;;;;;;4.10;1.90;;;4.60;86.70;;;;;;5111434;28;20032;-45
2021/12/20 13:12:59;;;;;;;5.95;2.33;;;4.60;86.50;;;;;;5096302;28;20020;-45
2021/12/20 13:15:48;;;;;;;8.43;3.03;;;4.60;86.40;;;;;;5107370;28;20459;-45
2021/12/20 13:18:37;;;;;;;;;;;4.60;86.40;;;;;;5112490;28;20028;-45